Rutherford, CA

11:41 AM PST on February 14, 2016 (GMT -0800)
KCAOAKVI6 | | Change Station
CLOSE
Current Station
Personal Weather Station
Location: Oakville, CA
Elevation: 190 ft
Nearby Weather Stations

Elev 190 ft 38.41 °N, 122.39 °W | Updated 9 minutes ago

Clear
Clear
68.6 °F
Feels Like 68.6 °F
N
0.0
Wind Variable Wind from ENE
Gusts 0.0 mph

Today
High -- | Low -- °F
--% Chance of Precip.
Yesterday
High -- | Low -- °F
Precip. -- in
Pressure 30.31 in
Visibility 10.0 miles
Clouds Clear
Dew Point 55 °F
Humidity 63%
Rainfall 0.00 in
Snow Depth Not available.
7:01 AM 5:46 PM
Waxing Crescent, 44% visible
METAR KO69 141935Z AUTO 31006KT 10SM CLR 20/12 A3031 RMK AO1
Pressure 30.31 in
Visibility 10.0 miles
Clouds Clear
Dew Point 55 °F
Humidity 63%
Rainfall 0.00 in
Snow Depth Not available.
7:01 AM 5:46 PM
Waxing Crescent, 44% visible
METAR KO69 141935Z AUTO 31006KT 10SM CLR 20/12 A3031 RMK AO1

10-Day Weather Forecast

Almanac

Astronomy

Feb. 14, 2016 Rise Set
Actual Time
Civil Twilight
Nautical Twilight
Astronomical Twilight
Moon
Length of Visible Light
Length of Day
Tomorrow will be .
, % of the Moon is Illuminated

Today's Extremes

State Highs State Lows

Community

WunderPhotos

Upload Photos

1,892,879 photos uploaded!

WunderBlog® & News

Nearby

Air Quality

  Air Quality AQ Index Pollutant
Not available.

Snow Depth

Station Depth Elevation

Earthquake Activity

City Distance Mag. Time & Date
Minimum magnitude displayed is 2.5.

Coastal Water Temperatures

Place Temperature

Stations

Nearby Weather Stations

Station Location Temp. Windchill Dew Point Humidity Wind Precip. Elev Updated Type
                   

Watches & Warnings

There are currently no watches in effect.